sensor_id;sensor_type;location;lat;lon;timestamp;temperature;humidity
26278;DHT22;14000;52.056;8.510;2024-03-08T00:00:40;0.90;99.90
26278;DHT22;14000;52.056;8.510;2024-03-08T00:03:08;0.90;99.90
26278;DHT22;14000;52.056;8.510;2024-03-08T00:05:35;0.90;99.90
26278;DHT22;14000;52.056;8.510;2024-03-08T00:08:01;2.10;99.90
26278;DHT22;14000;52.056;8.510;2024-03-08T00:10:27;0.90;99.90
26278;DHT22;14000;52.056;8.510;2024-03-08T00:12:54;0.90;99.90
26278;DHT22;14000;52.056;8.510;2024-03-08T00:15:20;1.70;99.90
26278;DHT22;14000;52.056;8.510;2024-03-08T00:17:48;0.90;99.90
26278;DHT22;14000;52.056;8.510;2024-03-08T00:20:14;0.90;99.90
26278;DHT22;14000;52.056;8.510;2024-03-08T00:22:40;0.80;99.90
26278;DHT22;14000;52.056;8.510;2024-03-08T00:25:07;0.80;99.90
26278;DHT22;14000;52.056;8.510;2024-03-08T00:27:36;0.70;99.90
26278;DHT22;14000;52.056;8.510;2024-03-08T00:30:02;0.70;99.90
26278;DHT22;14000;52.056;8.510;2024-03-08T00:32:28;0.70;99.90
26278;DHT22;14000;52.056;8.510;2024-03-08T00:34:54;0.70;99.90
26278;DHT22;14000;52.056;8.510;2024-03-08T00:37:20;0.70;99.90
26278;DHT22;14000;52.056;8.510;2024-03-08T00:39:48;0.70;99.90
26278;DHT22;14000;52.056;8.510;2024-03-08T00:42:15;0.60;99.90
26278;DHT22;14000;52.056;8.510;2024-03-08T00:44:41;0.60;99.90
26278;DHT22;14000;52.056;8.510;2024-03-08T00:47:06;0.60;99.90
26278;DHT22;14000;52.056;8.510;2024-03-08T00:49:32;0.60;99.90
26278;DHT22;14000;52.056;8.510;2024-03-08T00:51:57;0.60;99.90
26278;DHT22;14000;52.056;8.510;2024-03-08T00:54:23;0.50;99.90
26278;DHT22;14000;52.056;8.510;2024-03-08T00:56:49;0.60;99.90
26278;DHT22;14000;52.056;8.510;2024-03-08T00:59:14;0.50;99.90
26278;DHT22;14000;52.056;8.510;2024-03-08T01:01:43;0.50;99.90
26278;DHT22;14000;52.056;8.510;2024-03-08T01:04:10;0.50;99.90
26278;DHT22;14000;52.056;8.510;2024-03-08T01:06:36;0.40;99.90
26278;DHT22;14000;52.056;8.510;2024-03-08T01:09:02;0.40;99.90
26278;DHT22;14000;52.056;8.510;2024-03-08T01:11:28;0.40;99.90
26278;DHT22;14000;52.056;8.510;2024-03-08T01:13:54;0.40;99.90
26278;DHT22;14000;52.056;8.510;2024-03-08T01:16:20;0.40;99.90
26278;DHT22;14000;52.056;8.510;2024-03-08T01:18:46;0.40;99.90
26278;DHT22;14000;52.056;8.510;2024-03-08T01:21:12;0.40;99.90
26278;DHT22;14000;52.056;8.510;2024-03-08T01:23:38;0.30;99.90
26278;DHT22;14000;52.056;8.510;2024-03-08T01:26:04;0.30;99.90
26278;DHT22;14000;52.056;8.510;2024-03-08T01:28:30;0.30;99.90
26278;DHT22;14000;52.056;8.510;2024-03-08T01:30:56;0.20;99.90
26278;DHT22;14000;52.056;8.510;2024-03-08T01:33:23;0.20;99.90
26278;DHT22;14000;52.056;8.510;2024-03-08T01:35:53;0.20;99.90
26278;DHT22;14000;52.056;8.510;2024-03-08T01:38:20;0.20;99.90
26278;DHT22;14000;52.056;8.510;2024-03-08T01:40:49;0.20;99.90
26278;DHT22;14000;52.056;8.510;2024-03-08T01:43:24;0.20;99.90
26278;DHT22;14000;52.056;8.510;2024-03-08T01:45:50;0.20;99.90
26278;DHT22;14000;52.056;8.510;2024-03-08T01:48:17;0.20;99.90
26278;DHT22;14000;52.056;8.510;2024-03-08T01:50:43;0.20;99.90
26278;DHT22;14000;52.056;8.510;2024-03-08T01:53:10;0.10;99.90
26278;DHT22;14000;52.056;8.510;2024-03-08T01:55:38;0.10;99.90
26278;DHT22;14000;52.056;8.510;2024-03-08T01:58:05;0.20;99.90
26278;DHT22;14000;52.056;8.510;2024-03-08T02:00:32;0.10;99.90
26278;DHT22;14000;52.056;8.510;2024-03-08T02:02:58;0.10;99.90
26278;DHT22;14000;52.056;8.510;2024-03-08T02:05:24;0.10;99.90
26278;DHT22;14000;52.056;8.510;2024-03-08T02:07:50;0.10;99.90
26278;DHT22;14000;52.056;8.510;2024-03-08T02:10:15;0.10;99.90
26278;DHT22;14000;52.056;8.510;2024-03-08T02:12:41;0.10;99.90
26278;DHT22;14000;52.056;8.510;2024-03-08T02:15:08;0.10;99.90
26278;DHT22;14000;52.056;8.510;2024-03-08T02:17:33;0.00;99.90
26278;DHT22;14000;52.056;8.510;2024-03-08T02:19:59;0.10;99.90
26278;DHT22;14000;52.056;8.510;2024-03-08T02:22:28;0.00;99.90
26278;DHT22;14000;52.056;8.510;2024-03-08T02:24:55;0.00;99.90
26278;DHT22;14000;52.056;8.510;2024-03-08T02:27:27;-0.10;99.90
26278;DHT22;14000;52.056;8.510;2024-03-08T02:29:56;-0.10;99.90
26278;DHT22;14000;52.056;8.510;2024-03-08T02:32:23;-0.20;99.90
26278;DHT22;14000;52.056;8.510;2024-03-08T02:34:49;-0.10;99.90
26278;DHT22;14000;52.056;8.510;2024-03-08T02:37:15;-0.20;99.90
26278;DHT22;14000;52.056;8.510;2024-03-08T02:39:41;-0.20;99.90
26278;DHT22;14000;52.056;8.510;2024-03-08T02:42:07;-0.20;99.90
26278;DHT22;14000;52.056;8.510;2024-03-08T02:44:33;-0.20;99.90
26278;DHT22;14000;52.056;8.510;2024-03-08T02:47:01;-0.30;99.90
26278;DHT22;14000;52.056;8.510;2024-03-08T02:49:27;-0.20;99.90
26278;DHT22;14000;52.056;8.510;2024-03-08T02:51:53;-0.20;99.90
26278;DHT22;14000;52.056;8.510;2024-03-08T02:54:19;-0.20;99.90
26278;DHT22;14000;52.056;8.510;2024-03-08T02:56:46;-0.20;99.90
26278;DHT22;14000;52.056;8.510;2024-03-08T02:59:15;-0.30;99.90
26278;DHT22;14000;52.056;8.510;2024-03-08T03:01:43;-0.30;99.90
26278;DHT22;14000;52.056;8.510;2024-03-08T03:04:09;-0.30;99.90
26278;DHT22;14000;52.056;8.510;2024-03-08T03:06:35;-0.30;99.90
26278;DHT22;14000;52.056;8.510;2024-03-08T03:09:01;-0.30;99.90
26278;DHT22;14000;52.056;8.510;2024-03-08T03:11:27;-0.30;99.90
26278;DHT22;14000;52.056;8.510;2024-03-08T03:13:53;-0.30;99.90
26278;DHT22;14000;52.056;8.510;2024-03-08T03:16:19;-0.30;99.90
26278;DHT22;14000;52.056;8.510;2024-03-08T03:18:45;-0.30;99.90
26278;DHT22;14000;52.056;8.510;2024-03-08T03:21:11;-0.30;99.90
26278;DHT22;14000;52.056;8.510;2024-03-08T03:23:39;-0.30;99.90
26278;DHT22;14000;52.056;8.510;2024-03-08T03:26:05;-0.40;99.90
26278;DHT22;14000;52.056;8.510;2024-03-08T03:28:32;-0.40;99.90
26278;DHT22;14000;52.056;8.510;2024-03-08T03:30:59;-0.40;99.90
26278;DHT22;14000;52.056;8.510;2024-03-08T03:33:25;-0.40;99.90
26278;DHT22;14000;52.056;8.510;2024-03-08T03:35:51;-0.40;99.90
26278;DHT22;14000;52.056;8.510;2024-03-08T03:38:17;-0.40;99.90
26278;DHT22;14000;52.056;8.510;2024-03-08T03:40:45;-0.40;99.90
26278;DHT22;14000;52.056;8.510;2024-03-08T03:43:11;-0.40;99.90
26278;DHT22;14000;52.056;8.510;2024-03-08T03:45:37;-0.40;99.90
26278;DHT22;14000;52.056;8.510;2024-03-08T03:48:06;-0.40;99.90
26278;DHT22;14000;52.056;8.510;2024-03-08T03:50:34;-0.50;99.90
26278;DHT22;14000;52.056;8.510;2024-03-08T03:53:00;-0.50;99.90
26278;DHT22;14000;52.056;8.510;2024-03-08T03:55:26;-0.50;99.90
26278;DHT22;14000;52.056;8.510;2024-03-08T03:57:52;-0.50;99.90
26278;DHT22;14000;52.056;8.510;2024-03-08T04:00:18;-0.50;99.90
26278;DHT22;14000;52.056;8.510;2024-03-08T04:02:44;-0.50;99.90
26278;DHT22;14000;52.056;8.510;2024-03-08T04:05:10;-0.40;99.90
26278;DHT22;14000;52.056;8.510;2024-03-08T04:07:37;-0.40;99.90
26278;DHT22;14000;52.056;8.510;2024-03-08T04:10:04;-0.40;99.90
26278;DHT22;14000;52.056;8.510;2024-03-08T04:12:34;-0.40;99.90
26278;DHT22;14000;52.056;8.510;2024-03-08T04:15:00;-0.40;99.90
26278;DHT22;14000;52.056;8.510;2024-03-08T04:17:26;-0.40;99.90
26278;DHT22;14000;52.056;8.510;2024-03-08T04:19:52;-0.40;99.90
26278;DHT22;14000;52.056;8.510;2024-03-08T04:22:18;-0.40;99.90
26278;DHT22;14000;52.056;8.510;2024-03-08T04:24:46;-0.40;99.90
26278;DHT22;14000;52.056;8.510;2024-03-08T04:27:12;-0.40;99.90
26278;DHT22;14000;52.056;8.510;2024-03-08T04:29:37;-0.40;99.90
26278;DHT22;14000;52.056;8.510;2024-03-08T04:32:04;-0.40;99.90
26278;DHT22;14000;52.056;8.510;2024-03-08T04:34:31;-0.40;99.90
26278;DHT22;14000;52.056;8.510;2024-03-08T04:37:00;-0.40;99.90
26278;DHT22;14000;52.056;8.510;2024-03-08T04:39:26;-0.40;99.90
26278;DHT22;14000;52.056;8.510;2024-03-08T04:41:55;-0.50;99.90
26278;DHT22;14000;52.056;8.510;2024-03-08T04:44:23;-0.50;99.90
26278;DHT22;14000;52.056;8.510;2024-03-08T04:46:49;-0.50;99.90
26278;DHT22;14000;52.056;8.510;2024-03-08T04:49:15;-0.50;99.90
26278;DHT22;14000;52.056;8.510;2024-03-08T04:51:41;-0.50;99.90
26278;DHT22;14000;52.056;8.510;2024-03-08T04:54:06;-0.50;99.90
26278;DHT22;14000;52.056;8.510;2024-03-08T04:56:32;-0.50;99.90
26278;DHT22;14000;52.056;8.510;2024-03-08T04:58:59;-0.40;99.90
26278;DHT22;14000;52.056;8.510;2024-03-08T05:01:24;-0.40;99.90
26278;DHT22;14000;52.056;8.510;2024-03-08T05:03:50;-0.40;99.90
26278;DHT22;14000;52.056;8.510;2024-03-08T05:06:16;-0.40;99.90
26278;DHT22;14000;52.056;8.510;2024-03-08T05:08:42;-0.40;99.90
26278;DHT22;14000;52.056;8.510;2024-03-08T05:11:08;-0.40;99.90
26278;DHT22;14000;52.056;8.510;2024-03-08T05:13:33;-0.40;99.90
26278;DHT22;14000;52.056;8.510;2024-03-08T05:16:00;-0.40;99.90
26278;DHT22;14000;52.056;8.510;2024-03-08T05:18:26;-0.40;99.90
26278;DHT22;14000;52.056;8.510;2024-03-08T05:20:54;-0.50;99.90
26278;DHT22;14000;52.056;8.510;2024-03-08T05:23:19;-0.40;99.90
26278;DHT22;14000;52.056;8.510;2024-03-08T05:25:45;-0.40;99.90
26278;DHT22;14000;52.056;8.510;2024-03-08T05:28:14;-0.40;99.90
26278;DHT22;14000;52.056;8.510;2024-03-08T05:30:39;-0.40;99.90
26278;DHT22;14000;52.056;8.510;2024-03-08T05:33:05;-0.40;99.90
26278;DHT22;14000;52.056;8.510;2024-03-08T05:35:31;-0.40;99.90
26278;DHT22;14000;52.056;8.510;2024-03-08T05:37:57;-0.40;99.90
26278;DHT22;14000;52.056;8.510;2024-03-08T05:40:23;-0.40;99.90
26278;DHT22;14000;52.056;8.510;2024-03-08T05:42:49;-0.40;99.90
26278;DHT22;14000;52.056;8.510;2024-03-08T05:45:15;-0.40;99.90
26278;DHT22;14000;52.056;8.510;2024-03-08T05:47:41;-0.40;99.90
26278;DHT22;14000;52.056;8.510;2024-03-08T05:50:07;-0.40;99.90
26278;DHT22;14000;52.056;8.510;2024-03-08T05:52:36;-0.40;99.90
26278;DHT22;14000;52.056;8.510;2024-03-08T05:55:04;-0.40;99.90
26278;DHT22;14000;52.056;8.510;2024-03-08T05:57:32;-0.40;99.90
26278;DHT22;14000;52.056;8.510;2024-03-08T05:59:58;-0.40;99.90
26278;DHT22;14000;52.056;8.510;2024-03-08T06:02:24;-0.40;99.90
26278;DHT22;14000;52.056;8.510;2024-03-08T06:04:50;-0.40;99.90
26278;DHT22;14000;52.056;8.510;2024-03-08T06:07:15;-0.40;99.90
26278;DHT22;14000;52.056;8.510;2024-03-08T06:09:43;-0.40;99.90
26278;DHT22;14000;52.056;8.510;2024-03-08T06:12:11;-0.50;99.90
26278;DHT22;14000;52.056;8.510;2024-03-08T06:14:37;-0.40;99.90
26278;DHT22;14000;52.056;8.510;2024-03-08T06:17:03;-0.40;99.90
26278;DHT22;14000;52.056;8.510;2024-03-08T06:19:31;-0.40;99.90
26278;DHT22;14000;52.056;8.510;2024-03-08T06:21:57;-0.40;99.90
26278;DHT22;14000;52.056;8.510;2024-03-08T06:24:22;-0.40;99.90
26278;DHT22;14000;52.056;8.510;2024-03-08T06:26:48;-0.30;99.90
26278;DHT22;14000;52.056;8.510;2024-03-08T06:29:14;-0.30;99.90
26278;DHT22;14000;52.056;8.510;2024-03-08T06:31:40;-0.30;99.90
26278;DHT22;14000;52.056;8.510;2024-03-08T06:34:06;-0.30;99.90
26278;DHT22;14000;52.056;8.510;2024-03-08T06:36:33;-0.30;99.90
26278;DHT22;14000;52.056;8.510;2024-03-08T06:38:59;-0.20;99.90
26278;DHT22;14000;52.056;8.510;2024-03-08T06:41:25;-0.20;99.90
26278;DHT22;14000;52.056;8.510;2024-03-08T06:43:50;-0.20;99.90
26278;DHT22;14000;52.056;8.510;2024-03-08T06:46:23;-0.10;99.90
26278;DHT22;14000;52.056;8.510;2024-03-08T06:48:48;-0.10;99.90
26278;DHT22;14000;52.056;8.510;2024-03-08T06:51:17;0.00;99.90
26278;DHT22;14000;52.056;8.510;2024-03-08T06:53:43;0.00;99.90
26278;DHT22;14000;52.056;8.510;2024-03-08T06:56:09;0.00;99.90
26278;DHT22;14000;52.056;8.510;2024-03-08T06:58:34;0.00;99.90
26278;DHT22;14000;52.056;8.510;2024-03-08T07:01:00;0.10;99.90
26278;DHT22;14000;52.056;8.510;2024-03-08T07:03:29;0.10;99.90
26278;DHT22;14000;52.056;8.510;2024-03-08T07:05:56;0.20;99.90
26278;DHT22;14000;52.056;8.510;2024-03-08T07:08:23;0.20;99.90
26278;DHT22;14000;52.056;8.510;2024-03-08T07:10:49;0.30;99.90
26278;DHT22;14000;52.056;8.510;2024-03-08T07:13:15;0.40;99.90
26278;DHT22;14000;52.056;8.510;2024-03-08T07:15:43;0.40;99.90
26278;DHT22;14000;52.056;8.510;2024-03-08T07:18:08;0.50;99.90
26278;DHT22;14000;52.056;8.510;2024-03-08T07:20:34;0.60;99.90
26278;DHT22;14000;52.056;8.510;2024-03-08T07:23:02;0.60;99.90
26278;DHT22;14000;52.056;8.510;2024-03-08T07:25:28;0.70;99.90
26278;DHT22;14000;52.056;8.510;2024-03-08T07:27:55;0.70;99.90
26278;DHT22;14000;52.056;8.510;2024-03-08T07:30:25;0.80;99.90
26278;DHT22;14000;52.056;8.510;2024-03-08T07:33:10;0.90;99.90
26278;DHT22;14000;52.056;8.510;2024-03-08T07:35:39;1.00;99.90
26278;DHT22;14000;52.056;8.510;2024-03-08T07:38:06;1.00;99.90
26278;DHT22;14000;52.056;8.510;2024-03-08T07:40:42;1.10;99.90
26278;DHT22;14000;52.056;8.510;2024-03-08T07:43:10;1.20;99.90
26278;DHT22;14000;52.056;8.510;2024-03-08T07:45:39;1.60;99.90
26278;DHT22;14000;52.056;8.510;2024-03-08T07:48:06;1.30;99.90
26278;DHT22;14000;52.056;8.510;2024-03-08T07:50:36;1.40;99.90
26278;DHT22;14000;52.056;8.510;2024-03-08T07:53:03;1.50;99.90
26278;DHT22;14000;52.056;8.510;2024-03-08T07:55:29;1.60;99.90
26278;DHT22;14000;52.056;8.510;2024-03-08T07:57:56;1.60;99.90
26278;DHT22;14000;52.056;8.510;2024-03-08T08:00:22;1.60;99.90
26278;DHT22;14000;52.056;8.510;2024-03-08T08:02:47;1.70;99.90
26278;DHT22;14000;52.056;8.510;2024-03-08T08:05:15;1.70;99.90
26278;DHT22;14000;52.056;8.510;2024-03-08T08:07:46;2.20;99.90
26278;DHT22;14000;52.056;8.510;2024-03-08T08:10:12;1.80;99.90
26278;DHT22;14000;52.056;8.510;2024-03-08T08:12:50;1.90;99.90
26278;DHT22;14000;52.056;8.510;2024-03-08T08:15:17;2.00;99.90
26278;DHT22;14000;52.056;8.510;2024-03-08T08:17:43;2.10;99.90
26278;DHT22;14000;52.056;8.510;2024-03-08T08:20:10;2.20;99.90
26278;DHT22;14000;52.056;8.510;2024-03-08T08:22:37;2.30;99.90
26278;DHT22;14000;52.056;8.510;2024-03-08T08:25:04;2.30;99.90
26278;DHT22;14000;52.056;8.510;2024-03-08T08:27:30;2.50;99.90
26278;DHT22;14000;52.056;8.510;2024-03-08T08:29:55;2.50;99.90
26278;DHT22;14000;52.056;8.510;2024-03-08T08:32:22;2.60;99.90
26278;DHT22;14000;52.056;8.510;2024-03-08T08:34:47;2.70;99.90
26278;DHT22;14000;52.056;8.510;2024-03-08T08:37:13;2.80;99.90
26278;DHT22;14000;52.056;8.510;2024-03-08T08:39:39;2.90;99.90
26278;DHT22;14000;52.056;8.510;2024-03-08T08:42:04;3.00;99.90
26278;DHT22;14000;52.056;8.510;2024-03-08T08:44:30;3.10;99.90
26278;DHT22;14000;52.056;8.510;2024-03-08T08:47:00;3.20;99.90
26278;DHT22;14000;52.056;8.510;2024-03-08T08:49:26;3.20;99.90
26278;DHT22;14000;52.056;8.510;2024-03-08T08:51:52;3.30;99.90
26278;DHT22;14000;52.056;8.510;2024-03-08T08:54:18;3.30;99.90
26278;DHT22;14000;52.056;8.510;2024-03-08T08:56:44;3.40;99.90
26278;DHT22;14000;52.056;8.510;2024-03-08T08:59:10;3.50;99.90
26278;DHT22;14000;52.056;8.510;2024-03-08T09:01:39;3.60;99.90
26278;DHT22;14000;52.056;8.510;2024-03-08T09:04:05;4.10;99.90
26278;DHT22;14000;52.056;8.510;2024-03-08T09:06:31;3.80;99.90
26278;DHT22;14000;52.056;8.510;2024-03-08T09:08:57;3.90;99.90
26278;DHT22;14000;52.056;8.510;2024-03-08T09:11:23;4.00;99.90
26278;DHT22;14000;52.056;8.510;2024-03-08T09:13:50;6.20;99.90
26278;DHT22;14000;52.056;8.510;2024-03-08T09:16:16;4.20;99.90
26278;DHT22;14000;52.056;8.510;2024-03-08T09:18:42;4.30;99.90
26278;DHT22;14000;52.056;8.510;2024-03-08T09:21:07;4.50;99.90
26278;DHT22;14000;52.056;8.510;2024-03-08T09:23:36;4.60;99.90
26278;DHT22;14000;52.056;8.510;2024-03-08T09:26:02;4.70;99.90
26278;DHT22;14000;52.056;8.510;2024-03-08T09:28:29;4.70;99.90
26278;DHT22;14000;52.056;8.510;2024-03-08T09:30:55;4.70;99.90
26278;DHT22;14000;52.056;8.510;2024-03-08T09:33:21;4.70;99.90
26278;DHT22;14000;52.056;8.510;2024-03-08T09:35:47;4.90;99.90
26278;DHT22;14000;52.056;8.510;2024-03-08T09:38:16;4.90;99.90
26278;DHT22;14000;52.056;8.510;2024-03-08T09:40:42;5.10;99.90
26278;DHT22;14000;52.056;8.510;2024-03-08T09:43:11;5.20;99.90
26278;DHT22;14000;52.056;8.510;2024-03-08T09:45:37;5.30;99.90
26278;DHT22;14000;52.056;8.510;2024-03-08T09:48:11;5.30;99.90
26278;DHT22;14000;52.056;8.510;2024-03-08T09:50:40;5.40;99.90
26278;DHT22;14000;52.056;8.510;2024-03-08T09:53:06;5.50;99.90
26278;DHT22;14000;52.056;8.510;2024-03-08T09:55:37;5.60;99.90
26278;DHT22;14000;52.056;8.510;2024-03-08T09:58:05;5.70;99.90
26278;DHT22;14000;52.056;8.510;2024-03-08T10:00:50;5.70;99.90
26278;DHT22;14000;52.056;8.510;2024-03-08T10:03:16;5.90;99.90
26278;DHT22;14000;52.056;8.510;2024-03-08T10:05:42;6.50;99.90
26278;DHT22;14000;52.056;8.510;2024-03-08T10:08:10;6.10;99.90
26278;DHT22;14000;52.056;8.510;2024-03-08T10:10:37;6.20;99.90
26278;DHT22;14000;52.056;8.510;2024-03-08T10:13:06;6.20;99.90
26278;DHT22;14000;52.056;8.510;2024-03-08T10:15:32;7.10;99.90
26278;DHT22;14000;52.056;8.510;2024-03-08T10:18:00;8.00;99.90
26278;DHT22;14000;52.056;8.510;2024-03-08T10:20:28;7.30;99.90
26278;DHT22;14000;52.056;8.510;2024-03-08T10:23:01;6.50;99.90
26278;DHT22;14000;52.056;8.510;2024-03-08T10:25:29;6.50;99.90
26278;DHT22;14000;52.056;8.510;2024-03-08T10:27:57;7.60;99.90
26278;DHT22;14000;52.056;8.510;2024-03-08T10:30:23;6.70;99.90
26278;DHT22;14000;52.056;8.510;2024-03-08T10:32:49;7.70;99.90
26278;DHT22;14000;52.056;8.510;2024-03-08T10:35:15;7.60;99.90
26278;DHT22;14000;52.056;8.510;2024-03-08T10:37:48;7.00;99.90
26278;DHT22;14000;52.056;8.510;2024-03-08T10:40:19;7.10;99.90
26278;DHT22;14000;52.056;8.510;2024-03-08T10:42:53;7.20;99.90
26278;DHT22;14000;52.056;8.510;2024-03-08T10:45:35;7.30;99.90
26278;DHT22;14000;52.056;8.510;2024-03-08T10:50:53;7.40;99.90
26278;DHT22;14000;52.056;8.510;2024-03-08T10:53:19;7.40;99.90
26278;DHT22;14000;52.056;8.510;2024-03-08T10:55:49;7.50;99.90
26278;DHT22;14000;52.056;8.510;2024-03-08T10:58:22;7.90;99.90
26278;DHT22;14000;52.056;8.510;2024-03-08T11:00:49;8.30;99.90
26278;DHT22;14000;52.056;8.510;2024-03-08T11:06:17;8.10;99.90
26278;DHT22;14000;52.056;8.510;2024-03-08T11:08:45;8.20;99.90
26278;DHT22;14000;52.056;8.510;2024-03-08T11:11:32;8.30;99.90
26278;DHT22;14000;52.056;8.510;2024-03-08T11:13:59;8.40;99.90
26278;DHT22;14000;52.056;8.510;2024-03-08T11:19:22;8.60;99.90
26278;DHT22;14000;52.056;8.510;2024-03-08T11:21:57;8.30;99.90
26278;DHT22;14000;52.056;8.510;2024-03-08T11:24:23;8.40;99.90
26278;DHT22;14000;52.056;8.510;2024-03-08T11:26:49;8.30;99.90
26278;DHT22;14000;52.056;8.510;2024-03-08T11:32:27;8.50;99.90
26278;DHT22;14000;52.056;8.510;2024-03-08T11:34:53;8.60;99.90
26278;DHT22;14000;52.056;8.510;2024-03-08T11:37:20;8.80;99.90
26278;DHT22;14000;52.056;8.510;2024-03-08T11:39:51;9.00;99.90
26278;DHT22;14000;52.056;8.510;2024-03-08T11:42:18;9.90;99.90
26278;DHT22;14000;52.056;8.510;2024-03-08T11:44:45;11.70;99.90
26278;DHT22;14000;52.056;8.510;2024-03-08T11:47:11;13.30;99.90
26278;DHT22;14000;52.056;8.510;2024-03-08T11:49:38;14.50;99.90
26278;DHT22;14000;52.056;8.510;2024-03-08T11:52:04;15.20;99.90
26278;DHT22;14000;52.056;8.510;2024-03-08T11:54:30;16.50;99.90
26278;DHT22;14000;52.056;8.510;2024-03-08T11:56:59;17.20;99.90
26278;DHT22;14000;52.056;8.510;2024-03-08T11:59:28;18.00;99.90
26278;DHT22;14000;52.056;8.510;2024-03-08T12:02:05;19.00;99.90
26278;DHT22;14000;52.056;8.510;2024-03-08T12:04:32;19.40;99.90
26278;DHT22;14000;52.056;8.510;2024-03-08T12:07:02;19.80;99.90
26278;DHT22;14000;52.056;8.510;2024-03-08T12:09:31;20.10;99.90
26278;DHT22;14000;52.056;8.510;2024-03-08T12:11:58;19.10;99.90
26278;DHT22;14000;52.056;8.510;2024-03-08T12:14:24;18.00;99.90
26278;DHT22;14000;52.056;8.510;2024-03-08T12:16:51;16.60;99.90
26278;DHT22;14000;52.056;8.510;2024-03-08T12:19:16;15.70;99.90
26278;DHT22;14000;52.056;8.510;2024-03-08T12:21:42;15.30;99.90
26278;DHT22;14000;52.056;8.510;2024-03-08T12:24:17;15.50;99.90
26278;DHT22;14000;52.056;8.510;2024-03-08T12:26:47;14.70;99.90
26278;DHT22;14000;52.056;8.510;2024-03-08T12:29:24;14.80;99.90
26278;DHT22;14000;52.056;8.510;2024-03-08T12:31:58;14.40;99.90
26278;DHT22;14000;52.056;8.510;2024-03-08T12:34:27;14.10;99.90
26278;DHT22;14000;52.056;8.510;2024-03-08T12:36:54;14.10;99.90
26278;DHT22;14000;52.056;8.510;2024-03-08T12:39:21;13.80;99.90
26278;DHT22;14000;52.056;8.510;2024-03-08T12:41:56;13.50;99.90
26278;DHT22;14000;52.056;8.510;2024-03-08T12:44:25;13.10;99.90
26278;DHT22;14000;52.056;8.510;2024-03-08T12:46:52;12.70;99.90
26278;DHT22;14000;52.056;8.510;2024-03-08T12:49:19;12.40;99.90
26278;DHT22;14000;52.056;8.510;2024-03-08T12:51:47;12.60;99.90
26278;DHT22;14000;52.056;8.510;2024-03-08T12:54:13;12.50;99.90
26278;DHT22;14000;52.056;8.510;2024-03-08T12:56:39;12.60;99.90
26278;DHT22;14000;52.056;8.510;2024-03-08T12:59:06;12.70;99.90
26278;DHT22;14000;52.056;8.510;2024-03-08T13:01:35;12.50;99.90
26278;DHT22;14000;52.056;8.510;2024-03-08T13:04:05;12.40;99.90
26278;DHT22;14000;52.056;8.510;2024-03-08T13:06:32;12.30;99.90
26278;DHT22;14000;52.056;8.510;2024-03-08T13:08:58;12.20;99.90
26278;DHT22;14000;52.056;8.510;2024-03-08T13:11:24;12.20;99.90
26278;DHT22;14000;52.056;8.510;2024-03-08T13:13:51;12.30;99.90
26278;DHT22;14000;52.056;8.510;2024-03-08T13:16:18;12.40;99.90
26278;DHT22;14000;52.056;8.510;2024-03-08T13:18:45;12.70;99.90
26278;DHT22;14000;52.056;8.510;2024-03-08T13:21:14;12.10;99.90
26278;DHT22;14000;52.056;8.510;2024-03-08T13:23:41;13.00;99.90
26278;DHT22;14000;52.056;8.510;2024-03-08T13:26:11;12.40;99.90
26278;DHT22;14000;52.056;8.510;2024-03-08T13:28:47;12.50;99.90
26278;DHT22;14000;52.056;8.510;2024-03-08T13:31:23;12.40;99.90
26278;DHT22;14000;52.056;8.510;2024-03-08T13:33:49;12.60;99.90
26278;DHT22;14000;52.056;8.510;2024-03-08T13:36:17;12.70;99.90
26278;DHT22;14000;52.056;8.510;2024-03-08T13:38:47;12.80;99.90
26278;DHT22;14000;52.056;8.510;2024-03-08T13:41:14;12.70;99.90
26278;DHT22;14000;52.056;8.510;2024-03-08T13:43:49;12.70;99.90
26278;DHT22;14000;52.056;8.510;2024-03-08T13:46:15;13.30;99.90
26278;DHT22;14000;52.056;8.510;2024-03-08T13:48:41;13.20;99.90
26278;DHT22;14000;52.056;8.510;2024-03-08T13:51:07;13.10;99.90
26278;DHT22;14000;52.056;8.510;2024-03-08T13:53:35;13.10;99.90
26278;DHT22;14000;52.056;8.510;2024-03-08T13:56:04;13.10;99.90
26278;DHT22;14000;52.056;8.510;2024-03-08T13:58:30;13.30;99.90
26278;DHT22;14000;52.056;8.510;2024-03-08T14:00:56;13.30;99.90
26278;DHT22;14000;52.056;8.510;2024-03-08T14:03:22;13.20;99.90
26278;DHT22;14000;52.056;8.510;2024-03-08T14:05:50;13.30;99.90
26278;DHT22;14000;52.056;8.510;2024-03-08T14:08:15;13.50;99.90
26278;DHT22;14000;52.056;8.510;2024-03-08T14:10:42;13.50;99.90
26278;DHT22;14000;52.056;8.510;2024-03-08T14:13:08;13.40;99.90
26278;DHT22;14000;52.056;8.510;2024-03-08T14:15:34;13.40;99.90
26278;DHT22;14000;52.056;8.510;2024-03-08T14:18:01;13.90;99.90
26278;DHT22;14000;52.056;8.510;2024-03-08T14:20:32;14.10;99.90
26278;DHT22;14000;52.056;8.510;2024-03-08T14:22:57;14.40;99.90
26278;DHT22;14000;52.056;8.510;2024-03-08T14:25:23;14.80;99.90
26278;DHT22;14000;52.056;8.510;2024-03-08T14:27:50;15.30;99.90
26278;DHT22;14000;52.056;8.510;2024-03-08T14:30:19;15.90;99.90
26278;DHT22;14000;52.056;8.510;2024-03-08T14:33:07;16.40;99.90
26278;DHT22;14000;52.056;8.510;2024-03-08T14:35:38;16.30;99.90
26278;DHT22;14000;52.056;8.510;2024-03-08T14:38:04;15.90;99.90
26278;DHT22;14000;52.056;8.510;2024-03-08T14:40:30;15.80;99.90
26278;DHT22;14000;52.056;8.510;2024-03-08T14:42:56;15.20;99.90
26278;DHT22;14000;52.056;8.510;2024-03-08T14:45:22;15.00;99.90
26278;DHT22;14000;52.056;8.510;2024-03-08T14:47:50;14.80;99.90
26278;DHT22;14000;52.056;8.510;2024-03-08T14:50:19;14.70;99.90
26278;DHT22;14000;52.056;8.510;2024-03-08T14:52:45;14.60;99.90
26278;DHT22;14000;52.056;8.510;2024-03-08T14:55:15;14.40;99.90
26278;DHT22;14000;52.056;8.510;2024-03-08T14:57:41;14.30;99.90
26278;DHT22;14000;52.056;8.510;2024-03-08T15:00:08;14.30;99.90
26278;DHT22;14000;52.056;8.510;2024-03-08T15:02:42;14.00;99.90
26278;DHT22;14000;52.056;8.510;2024-03-08T15:05:07;13.80;99.90
26278;DHT22;14000;52.056;8.510;2024-03-08T15:07:37;13.60;99.90
26278;DHT22;14000;52.056;8.510;2024-03-08T15:10:07;13.70;99.90
26278;DHT22;14000;52.056;8.510;2024-03-08T15:12:37;13.40;99.90
26278;DHT22;14000;52.056;8.510;2024-03-08T15:15:02;13.40;99.90
26278;DHT22;14000;52.056;8.510;2024-03-08T15:17:33;13.30;99.90
26278;DHT22;14000;52.056;8.510;2024-03-08T15:20:00;13.20;99.90
26278;DHT22;14000;52.056;8.510;2024-03-08T15:22:26;13.00;99.90
26278;DHT22;14000;52.056;8.510;2024-03-08T15:24:52;13.10;99.90
26278;DHT22;14000;52.056;8.510;2024-03-08T15:27:18;13.10;99.90
26278;DHT22;14000;52.056;8.510;2024-03-08T15:29:44;12.90;99.90
26278;DHT22;14000;52.056;8.510;2024-03-08T15:32:14;12.70;99.90
26278;DHT22;14000;52.056;8.510;2024-03-08T15:34:45;12.80;99.90
26278;DHT22;14000;52.056;8.510;2024-03-08T15:37:11;12.70;99.90
26278;DHT22;14000;52.056;8.510;2024-03-08T15:39:42;12.70;99.90
26278;DHT22;14000;52.056;8.510;2024-03-08T15:42:08;12.60;99.90
26278;DHT22;14000;52.056;8.510;2024-03-08T15:44:37;12.50;99.90
26278;DHT22;14000;52.056;8.510;2024-03-08T15:47:04;12.40;99.90
26278;DHT22;14000;52.056;8.510;2024-03-08T15:49:32;12.50;99.90